Time;durP1;ratioP1;P1;durP2;ratioP2;P2;SDS_P1;SDS_P2;PMS_P1;PMS_P2;Temp;Humidity;BMP_temperature;BMP_pressure;BME280_temperature;BME280_humidity;BME280_pressure;Samples;Min_cycle;Max_cycle;Signal;HPM_P1;HPM_P2
2022/06/25 13:47:52;;;;;;;2.58;1.90;;;;;;;35.92;26.31;98637.13;4597775;75;63330;-78
2022/06/25 13:56:57;;;;;;;2.65;1.65;;;;;;;35.92;26.31;98637.13;4518779;77;28542;-79
2022/06/25 14:03:02;;;;;;;3.80;1.82;;;;;;;35.92;26.31;98637.13;4546021;77;28535;-84
2022/06/25 14:09:04;;;;;;;3.60;1.90;;;;;;;35.92;26.31;98637.13;4536671;77;28477;-81
2022/06/25 14:15:06;;;;;;;4.12;1.98;;;;;;;36.34;24.44;98634.34;4516447;77;28547;-81
2022/06/25 14:21:07;;;;;;;3.60;1.72;;;;;;;36.63;23.88;98624.84;4514813;77;28510;-81
2022/06/25 14:27:08;;;;;;;3.50;2.08;;;;;;;36.63;23.88;98624.84;4513431;77;28524;-81
2022/06/25 14:33:12;;;;;;;4.83;2.02;;;;;;;35.53;25.76;98607.51;4563680;77;28548;-81
2022/06/25 14:45:33;;;;;;;2.95;2.35;;;;;;;35.00;26.42;98617.22;4530359;77;28608;-81
2022/06/25 14:51:40;;;;;;;3.47;2.12;;;;;;;35.00;26.42;98617.22;4540223;77;28525;-81
2022/06/25 14:57:42;;;;;;;3.15;1.82;;;;;;;34.62;26.17;98634.53;4529819;77;28531;-81
2022/06/25 15:03:45;;;;;;;5.42;2.65;;;;;;;35.01;26.56;98633.55;4511120;77;28537;-80
2022/06/25 15:09:46;;;;;;;6.15;2.22;;;;;;;35.51;26.27;98630.27;4528519;77;28929;-81
2022/06/25 15:15:47;;;;;;;4.00;2.30;;;;;;;35.67;25.48;98622.00;4553673;77;28529;-80
2022/06/25 15:21:49;;;;;;;3.62;2.37;;;;;;;35.62;26.32;98625.22;4555117;77;26578;-79
2022/06/25 15:27:51;;;;;;;2.40;1.92;;;;;;;35.50;25.62;98631.48;4549696;77;28520;-81
2022/06/25 15:33:52;;;;;;;4.17;2.08;;;;;;;35.47;25.88;98629.52;4564259;77;28535;-79
2022/06/25 15:39:54;;;;;;;3.17;2.40;;;;;;;35.07;26.09;98627.58;4529410;77;28525;-81
2022/06/25 15:45:57;;;;;;;2.75;2.30;;;;;;;34.73;26.33;98624.14;4524524;77;28529;-79
2022/06/25 15:51:58;;;;;;;3.67;2.00;;;;;;;34.73;26.79;98617.75;4491232;77;28549;-81
2022/06/25 15:58:00;;;;;;;2.22;2.00;;;;;;;34.51;26.60;98622.58;4519112;77;28526;-80
2022/06/25 16:04:01;;;;;;;2.80;2.15;;;;;;;35.02;26.27;98622.57;4524182;77;28534;-80
2022/06/25 16:10:05;;;;;;;2.47;1.85;;;;;;;35.16;26.41;98618.16;4500460;77;28522;-81
2022/06/25 16:16:07;;;;;;;3.12;2.47;;;;;;;35.50;26.61;98623.09;4526248;77;28533;-81
2022/06/25 16:22:08;;;;;;;4.85;2.10;;;;;;;34.87;26.63;98630.84;4503598;77;28521;-81
2022/06/25 16:28:15;;;;;;;4.25;2.30;;;;;;;34.99;26.64;98629.57;4517201;77;28533;-81
2022/06/25 16:34:21;;;;;;;4.00;2.75;;;;;;;34.71;26.73;98634.89;4510937;77;28522;-82
2022/06/25 16:40:24;;;;;;;4.25;2.60;;;;;;;34.46;26.68;98640.53;4517771;77;28568;-81
2022/06/25 16:46:25;;;;;;;4.75;2.47;;;;;;;34.37;27.01;98636.00;4534507;77;28593;-82
2022/06/25 16:52:26;;;;;;;2.95;2.42;;;;;;;34.44;27.27;98648.52;4514093;77;28517;-82
2022/06/25 16:58:29;;;;;;;4.83;2.50;;;;;;;34.53;27.37;98635.59;4497243;77;28501;-81
2022/06/25 17:04:33;;;;;;;4.15;2.40;;;;;;;34.32;27.75;98642.17;4490188;77;28585;-80
2022/06/25 17:10:37;;;;;;;4.25;2.50;;;;;;;34.34;28.16;98645.36;4507965;77;28549;-80
2022/06/25 17:16:41;;;;;;;2.67;2.45;;;;;;;34.12;29.03;98642.42;4491188;77;28548;-80
2022/06/25 17:22:43;;;;;;;4.37;2.65;;;;;;;34.05;28.36;98645.44;4526950;77;28542;-81
2022/06/25 17:28:47;;;;;;;4.47;2.42;;;;;;;33.95;29.18;98641.22;4513114;77;28512;-82
2022/06/25 17:34:50;;;;;;;4.08;3.10;;;;;;;33.92;29.26;98645.59;4531367;77;28485;-83
2022/06/25 17:40:55;;;;;;;3.98;3.08;;;;;;;33.83;29.64;98643.23;4495172;77;28523;-81
2022/06/25 17:46:57;;;;;;;3.45;2.80;;;;;;;33.92;29.86;98652.56;4511804;77;28489;-81
2022/06/25 17:53:02;;;;;;;4.12;2.77;;;;;;;33.86;29.97;98656.36;4503077;77;28488;-81
2022/06/25 17:59:04;;;;;;;;;;;;;;;34.02;30.22;98657.37;4522408;77;28533;-78
2022/06/25 18:05:07;;;;;;;5.53;3.15;;;;;;;33.75;31.15;98663.34;4558856;77;20185;-82
2022/06/25 18:11:15;;;;;;;4.60;3.12;;;;;;;33.47;31.74;98671.88;4516908;76;28542;-80
2022/06/25 18:17:17;;;;;;;4.95;3.40;;;;;;;33.29;32.10;98668.22;4450377;77;28544;-80
2022/06/25 18:23:18;;;;;;;6.62;3.85;;;;;;;33.08;32.36;98680.31;4501461;77;28517;-83
2022/06/25 18:29:20;;;;;;;9.45;4.95;;;;;;;32.72;32.80;98684.91;4508223;77;28546;-79
2022/06/25 18:35:21;;;;;;;6.20;3.30;;;;;;;32.43;34.08;98695.88;4527622;77;28515;-81
2022/06/25 18:41:23;;;;;;;7.28;3.58;;;;;;;31.76;36.22;98696.52;4523223;76;28558;-80
2022/06/25 18:47:26;;;;;;;6.12;3.55;;;;;;;31.56;36.73;98712.59;4526952;77;28541;-83
2022/06/25 18:53:30;;;;;;;5.50;3.50;;;;;;;31.22;37.51;98721.70;4534812;77;28502;-82
2022/06/25 18:59:38;;;;;;;7.58;4.22;;;;;;;31.28;37.06;98726.36;4519117;77;28530;-87
2022/06/25 19:23:53;;;;;;;6.67;4.28;;;;;;;30.93;36.15;98738.61;4517674;77;28475;-82
